createdAt,value
2018-03-04T00:01:53.471Z,-5.26
2018-03-04T00:04:21.062Z,-5.33
2018-03-04T00:06:48.731Z,-5.30
2018-03-04T00:09:16.252Z,-5.39
2018-03-04T00:11:43.773Z,-5.42
2018-03-04T00:14:11.301Z,-5.33
2018-03-04T00:16:38.833Z,-5.46
2018-03-04T00:19:06.363Z,-5.45
2018-03-04T00:21:33.885Z,-5.37
2018-03-04T00:24:01.415Z,-5.37
2018-03-04T00:26:28.936Z,-5.47
2018-03-04T00:28:56.458Z,-5.51
2018-03-04T00:31:25.622Z,-5.47
2018-03-04T00:33:53.941Z,-5.48
2018-03-04T00:36:21.465Z,-5.57
2018-03-04T00:38:48.984Z,-5.57
2018-03-04T00:41:16.530Z,-5.61
2018-03-04T00:43:44.212Z,-5.64
2018-03-04T00:46:11.732Z,-5.66
2018-03-04T00:48:39.252Z,-5.68
2018-03-04T00:51:06.783Z,-5.57
2018-03-04T00:53:35.027Z,-5.56
2018-03-04T00:56:02.862Z,-5.64
2018-03-04T00:58:30.384Z,-5.74
2018-03-04T01:00:57.966Z,-5.75
2018-03-04T01:03:25.480Z,-5.68
2018-03-04T01:05:53.006Z,-5.87
2018-03-04T01:08:20.530Z,-5.80
2018-03-04T01:10:48.057Z,-5.79
2018-03-04T01:13:15.609Z,-5.77
2018-03-04T01:15:43.125Z,-5.73
2018-03-04T01:18:11.286Z,-5.92
2018-03-04T01:20:38.834Z,-5.81
2018-03-04T01:23:06.357Z,-5.90
2018-03-04T01:25:33.881Z,-5.97
2018-03-04T01:28:01.455Z,-5.99
2018-03-04T01:30:29.015Z,-5.94
2018-03-04T01:32:56.538Z,-5.99
2018-03-04T01:35:24.072Z,-6.08
2018-03-04T01:37:52.525Z,-6.06
2018-03-04T01:40:20.051Z,-5.94
2018-03-04T01:42:47.576Z,-6.01
2018-03-04T01:45:15.097Z,-6.10
2018-03-04T01:47:43.546Z,-6.14
2018-03-04T01:50:11.091Z,-6.03
2018-03-04T01:52:38.622Z,-5.99
2018-03-04T01:55:06.153Z,-6.11
2018-03-04T01:57:33.673Z,-6.08
2018-03-04T02:00:01.198Z,-6.18
2018-03-04T02:02:29.046Z,-6.14
2018-03-04T02:04:56.577Z,-6.23
2018-03-04T02:07:24.110Z,-6.27
2018-03-04T02:09:51.637Z,-6.26
2018-03-04T02:12:19.169Z,-6.17
2018-03-04T02:14:46.696Z,-6.23
2018-03-04T02:17:14.221Z,-6.19
2018-03-04T02:19:41.750Z,-6.25
2018-03-04T02:22:09.927Z,-6.19
2018-03-04T02:24:37.457Z,-6.16
2018-03-04T02:27:04.997Z,-6.32
2018-03-04T02:29:32.529Z,-6.27
2018-03-04T02:32:00.064Z,-6.18
2018-03-04T02:34:27.859Z,-6.24
2018-03-04T02:36:55.386Z,-6.26
2018-03-04T02:39:23.691Z,-6.29
2018-03-04T02:41:52.922Z,-6.34
2018-03-04T02:44:20.453Z,-6.35
2018-03-04T02:46:47.975Z,-6.35
2018-03-04T02:49:15.497Z,-6.39
2018-03-04T02:51:43.026Z,-6.32
2018-03-04T02:54:10.558Z,-6.33
2018-03-04T02:56:38.092Z,-6.34
2018-03-04T02:59:05.661Z,-6.41
2018-03-04T03:01:33.196Z,-6.41
2018-03-04T03:04:00.734Z,-6.44
2018-03-04T03:06:28.262Z,-6.41
2018-03-04T03:08:55.785Z,-6.44
2018-03-04T03:11:23.309Z,-6.44
2018-03-04T03:13:50.839Z,-6.43
2018-03-04T03:16:18.367Z,-6.38
2018-03-04T03:18:45.894Z,-6.54
2018-03-04T03:21:14.207Z,-6.47
2018-03-04T03:23:41.725Z,-6.55
2018-03-04T03:26:09.252Z,-6.52
2018-03-04T03:28:36.778Z,-6.57
2018-03-04T03:31:04.306Z,-6.50
2018-03-04T03:33:31.832Z,-6.43
2018-03-04T03:35:59.387Z,-6.51
2018-03-04T03:38:26.918Z,-6.48
2018-03-04T03:40:54.441Z,-6.48
2018-03-04T03:43:21.967Z,-6.46
2018-03-04T03:45:49.490Z,-6.51
2018-03-04T03:48:17.192Z,-6.45
2018-03-04T03:50:44.718Z,-6.59
2018-03-04T03:53:12.238Z,-6.54
2018-03-04T03:55:39.764Z,-6.46
2018-03-04T03:58:07.292Z,-6.61
2018-03-04T04:00:34.816Z,-6.66
2018-03-04T04:03:03.001Z,-6.66
2018-03-04T04:05:30.525Z,-6.66
2018-03-04T04:07:58.049Z,-6.52
2018-03-04T04:10:25.574Z,-6.68
2018-03-04T04:12:53.100Z,-6.65
2018-03-04T04:15:20.628Z,-6.76
2018-03-04T04:17:48.146Z,-6.81
2018-03-04T04:20:15.666Z,-6.80
2018-03-04T04:22:43.191Z,-6.74
2018-03-04T04:25:10.731Z,-6.75
2018-03-04T04:27:38.254Z,-6.67
2018-03-04T04:30:05.782Z,-6.65
2018-03-04T04:32:33.309Z,-6.71
2018-03-04T04:35:00.859Z,-6.74
2018-03-04T04:37:28.393Z,-6.77
2018-03-04T04:39:55.940Z,-6.81
2018-03-04T04:42:24.037Z,-6.84
2018-03-04T04:44:51.559Z,-6.76
2018-03-04T04:47:19.690Z,-6.79
2018-03-04T04:49:47.220Z,-6.85
2018-03-04T04:52:14.740Z,-6.80
2018-03-04T04:54:42.267Z,-6.75
2018-03-04T04:57:09.794Z,-6.85
2018-03-04T04:59:37.325Z,-6.81
2018-03-04T05:02:04.881Z,-6.80
2018-03-04T05:04:32.407Z,-6.92
2018-03-04T05:07:00.513Z,-6.86
2018-03-04T05:09:28.053Z,-6.84
2018-03-04T05:11:56.053Z,-6.93
2018-03-04T05:14:23.590Z,-6.89
2018-03-04T05:16:51.109Z,-6.88
2018-03-04T05:19:18.630Z,-6.90
2018-03-04T05:21:46.157Z,-6.95
2018-03-04T05:24:13.677Z,-6.91
2018-03-04T05:26:41.197Z,-6.94
2018-03-04T05:29:09.085Z,-6.96
2018-03-04T05:31:36.605Z,-7.08
2018-03-04T05:34:04.126Z,-6.98
2018-03-04T05:36:31.657Z,-7.04
2018-03-04T05:38:59.211Z,-7.03
2018-03-04T05:41:26.733Z,-7.03
2018-03-04T05:43:54.262Z,-7.00
2018-03-04T05:46:21.790Z,-7.00
2018-03-04T05:48:49.321Z,-7.05
2018-03-04T05:51:16.859Z,-7.03
2018-03-04T05:53:44.394Z,-6.93
2018-03-04T05:56:11.926Z,-6.88
2018-03-04T05:58:39.445Z,-6.93
2018-03-04T06:01:07.020Z,-6.86
2018-03-04T06:03:34.517Z,-6.97
2018-03-04T06:06:02.035Z,-6.85
2018-03-04T06:08:29.549Z,-6.91
2018-03-04T06:10:57.065Z,-6.89
2018-03-04T06:13:24.595Z,-7.02
2018-03-04T06:15:52.128Z,-6.91
2018-03-04T06:18:19.655Z,-6.88
2018-03-04T06:20:47.179Z,-6.89
2018-03-04T06:23:14.695Z,-6.77
2018-03-04T06:25:42.217Z,-6.53
2018-03-04T06:28:09.737Z,-6.57
2018-03-04T06:30:37.267Z,-6.42
2018-03-04T06:33:04.785Z,-6.39
2018-03-04T06:35:33.174Z,-6.28
2018-03-04T06:38:00.728Z,-6.37
2018-03-04T06:40:29.189Z,-6.49
2018-03-04T06:42:56.725Z,-6.39
2018-03-04T06:45:24.249Z,-6.39
2018-03-04T06:47:51.771Z,-6.39
2018-03-04T06:50:19.301Z,-6.23
2018-03-04T06:52:46.848Z,-6.42
2018-03-04T06:55:14.367Z,-6.35
2018-03-04T06:57:41.900Z,-6.39
2018-03-04T07:00:09.425Z,-6.28
2018-03-04T07:02:36.963Z,-6.07
2018-03-04T07:05:05.362Z,-5.99
2018-03-04T07:07:32.897Z,-5.63
2018-03-04T07:10:00.702Z,-6.00
2018-03-04T07:12:29.080Z,-5.73
2018-03-04T07:14:56.613Z,-5.64
2018-03-04T07:17:24.173Z,-5.58
2018-03-04T07:19:51.689Z,-5.41
2018-03-04T07:22:19.220Z,-5.40
2018-03-04T07:24:46.746Z,-4.96
2018-03-04T07:27:14.280Z,-4.78
2018-03-04T07:29:41.827Z,-4.61
2018-03-04T07:32:09.366Z,-4.05
2018-03-04T07:34:36.906Z,-4.26
2018-03-04T07:37:04.441Z,-3.49
2018-03-04T07:39:31.966Z,-3.23
2018-03-04T07:41:59.497Z,-2.93
2018-03-04T07:44:27.029Z,-2.83
2018-03-04T07:46:54.550Z,-3.23
2018-03-04T07:49:22.073Z,-3.88
2018-03-04T07:51:49.608Z,-3.76
2018-03-04T07:54:17.142Z,-3.88
2018-03-04T07:56:45.642Z,-3.76
2018-03-04T07:59:13.632Z,-3.29
2018-03-04T08:01:42.000Z,-2.87
2018-03-04T08:04:09.522Z,-2.15
2018-03-04T08:06:37.055Z,-2.20
2018-03-04T08:09:04.637Z,-1.88
2018-03-04T08:11:33.056Z,-1.32
2018-03-04T08:14:00.581Z,-1.18
2018-03-04T08:16:28.101Z,-1.07
2018-03-04T08:18:55.634Z,-1.96
2018-03-04T08:21:24.136Z,-0.98
2018-03-04T08:23:51.673Z,0.29
2018-03-04T08:26:31.025Z,0.31
2018-03-04T08:28:58.549Z,-0.76
2018-03-04T08:31:26.075Z,-0.01
2018-03-04T08:33:53.620Z,-0.77
2018-03-04T08:36:21.592Z,1.19
2018-03-04T08:38:49.133Z,0.92
2018-03-04T08:41:16.995Z,-0.27
2018-03-04T08:43:44.525Z,2.05
2018-03-04T08:46:12.643Z,1.66
2018-03-04T08:48:40.170Z,2.51
2018-03-04T08:51:08.305Z,0.53
2018-03-04T08:53:35.836Z,-0.69
2018-03-04T08:56:03.361Z,-0.14
2018-03-04T08:58:30.883Z,0.84
2018-03-04T09:00:58.437Z,0.91
2018-03-04T09:03:25.997Z,1.45
2018-03-04T09:05:53.510Z,1.59
2018-03-04T09:08:21.035Z,2.92
2018-03-04T09:10:48.552Z,3.42
2018-03-04T09:13:16.079Z,4.59
2018-03-04T09:15:43.614Z,4.40
2018-03-04T09:18:11.158Z,2.94
2018-03-04T09:20:38.690Z,3.47
2018-03-04T09:23:06.217Z,5.54
2018-03-04T09:25:34.448Z,3.76
2018-03-04T09:28:01.937Z,3.50
2018-03-04T09:30:29.476Z,4.74
2018-03-04T09:32:56.995Z,3.56
2018-03-04T09:35:24.516Z,4.05
2018-03-04T09:37:52.042Z,5.46
2018-03-04T09:40:19.561Z,5.53
2018-03-04T09:42:47.087Z,4.23
2018-03-04T09:45:15.140Z,5.87
2018-03-04T09:47:42.656Z,7.58
2018-03-04T09:50:10.197Z,9.81
2018-03-04T09:52:38.441Z,9.07
2018-03-04T09:55:05.996Z,7.84
2018-03-04T09:57:34.305Z,6.19
2018-03-04T10:00:01.834Z,6.37
2018-03-04T10:02:29.353Z,6.36
2018-03-04T10:04:56.873Z,7.41
2018-03-04T10:07:24.411Z,9.93
2018-03-04T10:09:52.522Z,6.08
2018-03-04T10:12:20.038Z,6.72
2018-03-04T10:14:47.567Z,6.75
2018-03-04T10:17:15.098Z,5.77
2018-03-04T10:19:43.010Z,3.78
2018-03-04T10:22:11.373Z,4.43
2018-03-04T10:24:39.800Z,3.07
2018-03-04T10:27:07.323Z,2.65
2018-03-04T10:29:34.837Z,3.27
2018-03-04T10:32:02.362Z,3.15
2018-03-04T10:34:29.886Z,2.32
2018-03-04T10:36:57.552Z,2.65
2018-03-04T10:39:25.079Z,3.39
2018-03-04T10:41:52.601Z,3.12
2018-03-04T10:44:20.131Z,3.05
2018-03-04T10:46:47.986Z,1.79
2018-03-04T10:49:15.502Z,1.87
2018-03-04T10:51:43.032Z,1.37
2018-03-04T10:54:10.551Z,2.25
2018-03-04T10:56:38.074Z,2.93
2018-03-04T10:59:06.095Z,3.23
2018-03-04T11:01:35.601Z,2.16
2018-03-04T11:04:03.127Z,2.86
2018-03-04T11:06:30.938Z,3.26
2018-03-04T11:08:59.718Z,3.46
2018-03-04T11:11:28.041Z,2.99
2018-03-04T11:13:55.566Z,3.30
2018-03-04T11:16:23.321Z,2.92
2018-03-04T11:18:51.729Z,3.27
2018-03-04T11:21:19.253Z,3.31
2018-03-04T11:23:46.816Z,3.15
2018-03-04T11:26:14.338Z,3.01
2018-03-04T11:28:41.945Z,3.04
2018-03-04T11:31:10.170Z,3.16
2018-03-04T11:33:37.702Z,3.54
2018-03-04T11:36:05.573Z,3.24
2018-03-04T11:38:33.330Z,3.20
2018-03-04T11:41:00.854Z,3.11
2018-03-04T11:43:28.378Z,3.11
2018-03-04T11:45:55.909Z,2.75
2018-03-04T11:48:23.426Z,3.04
2018-03-04T11:50:50.939Z,3.10
2018-03-04T11:53:18.493Z,3.32
2018-03-04T11:55:46.036Z,3.05
2018-03-04T11:58:13.629Z,3.00
2018-03-04T12:00:41.150Z,2.88
2018-03-04T12:03:08.693Z,3.11
2018-03-04T12:05:36.235Z,2.83
2018-03-04T12:08:03.755Z,2.91
2018-03-04T12:10:32.085Z,2.91
2018-03-04T12:13:00.321Z,3.07
2018-03-04T12:15:27.853Z,3.21
2018-03-04T12:17:55.374Z,3.09
2018-03-04T12:20:23.834Z,3.21
2018-03-04T12:22:51.356Z,3.27
2018-03-04T12:25:18.881Z,3.07
2018-03-04T12:27:46.396Z,3.00
2018-03-04T12:30:13.925Z,3.52
2018-03-04T12:32:41.458Z,3.29
2018-03-04T12:35:08.973Z,3.26
2018-03-04T12:37:36.524Z,3.54
2018-03-04T12:40:04.048Z,3.52
2018-03-04T12:42:31.583Z,3.77
2018-03-04T12:44:59.624Z,3.33
2018-03-04T12:47:27.162Z,3.36
2018-03-04T12:49:55.483Z,3.55
2018-03-04T12:52:23.010Z,3.53
2018-03-04T12:54:50.535Z,3.74
2018-03-04T12:57:18.058Z,3.48
2018-03-04T12:59:45.609Z,3.84
2018-03-04T13:02:14.033Z,3.54
2018-03-04T13:04:43.007Z,3.64
2018-03-04T13:07:11.342Z,3.94
2018-03-04T13:09:38.894Z,3.74
2018-03-04T13:12:06.437Z,3.96
2018-03-04T13:14:36.211Z,3.88
2018-03-04T13:17:03.746Z,3.94
2018-03-04T13:19:31.964Z,3.57
2018-03-04T13:22:01.768Z,3.77
2018-03-04T13:24:29.294Z,3.77
2018-03-04T13:26:58.944Z,3.98
2018-03-04T13:29:26.484Z,3.92
2018-03-04T13:31:54.016Z,4.16
2018-03-04T13:34:21.596Z,4.04
2018-03-04T13:36:49.127Z,3.82
2018-03-04T13:39:17.426Z,3.81
2018-03-04T13:41:45.040Z,3.97
2018-03-04T13:44:12.692Z,4.27
2018-03-04T13:46:40.468Z,4.16
2018-03-04T13:49:08.024Z,4.12
2018-03-04T13:51:37.340Z,4.17
2018-03-04T13:54:04.887Z,4.14
2018-03-04T13:56:32.469Z,4.02
2018-03-04T13:59:00.003Z,4.29
2018-03-04T14:01:27.546Z,4.10
2018-03-04T14:03:55.198Z,4.26
2018-03-04T14:06:22.728Z,4.23
2018-03-04T14:08:50.254Z,4.14
2018-03-04T14:11:17.907Z,4.27
2018-03-04T14:13:46.027Z,4.40
2018-03-04T14:16:13.662Z,4.10
2018-03-04T14:18:41.732Z,4.28
2018-03-04T14:21:09.775Z,4.08
2018-03-04T14:23:37.300Z,4.19
2018-03-04T14:26:04.879Z,4.26
2018-03-04T14:28:32.459Z,4.46
2018-03-04T14:30:59.990Z,4.43
2018-03-04T14:33:27.630Z,4.34
2018-03-04T14:35:56.019Z,4.32
2018-03-04T14:38:23.772Z,4.40
2018-03-04T14:40:51.357Z,4.47
2018-03-04T14:43:18.888Z,4.38
2018-03-04T14:45:46.966Z,4.27
2018-03-04T14:48:14.480Z,4.28
2018-03-04T14:50:42.239Z,4.48
2018-03-04T14:53:09.779Z,4.51
2018-03-04T14:55:38.936Z,4.48
2018-03-04T14:58:06.461Z,4.30
2018-03-04T15:00:33.998Z,4.37
2018-03-04T15:03:01.516Z,4.32
2018-03-04T15:05:29.024Z,4.51
2018-03-04T15:07:56.547Z,4.51
2018-03-04T15:10:24.101Z,4.52
2018-03-04T15:12:51.610Z,4.52
2018-03-04T15:15:19.146Z,4.49
2018-03-04T15:17:46.661Z,4.52
2018-03-04T15:20:14.181Z,4.53
2018-03-04T15:22:41.694Z,4.58
2018-03-04T15:25:09.227Z,4.54
2018-03-04T15:27:36.743Z,4.51
2018-03-04T15:30:04.305Z,4.50
2018-03-04T15:32:31.838Z,4.55
2018-03-04T15:35:01.097Z,4.47
2018-03-04T15:37:29.626Z,4.39
2018-03-04T15:39:57.157Z,4.45
2018-03-04T15:42:24.686Z,4.52
2018-03-04T15:44:52.205Z,4.40
2018-03-04T15:47:19.725Z,4.49
2018-03-04T15:49:47.335Z,4.39
2018-03-04T15:52:14.845Z,4.38
2018-03-04T15:54:42.368Z,4.39
2018-03-04T15:57:09.896Z,4.31
2018-03-04T15:59:37.420Z,4.36
2018-03-04T16:02:04.938Z,4.38
2018-03-04T16:04:32.456Z,4.29
2018-03-04T16:07:00.018Z,4.22
2018-03-04T16:09:27.544Z,4.21
2018-03-04T16:11:55.751Z,4.17
2018-03-04T16:14:23.274Z,4.16
2018-03-04T16:16:50.800Z,4.11
2018-03-04T16:19:18.325Z,4.08
2018-03-04T16:21:45.846Z,4.11
2018-03-04T16:24:13.385Z,4.14
2018-03-04T16:26:40.900Z,4.05
2018-03-04T16:29:08.409Z,4.03
2018-03-04T16:31:35.926Z,4.00
2018-03-04T16:34:03.437Z,4.04
2018-03-04T16:36:30.969Z,3.96
2018-03-04T16:38:58.799Z,3.87
2018-03-04T16:41:26.322Z,3.89
2018-03-04T16:43:53.840Z,3.79
2018-03-04T16:46:21.392Z,3.76
2018-03-04T16:48:48.910Z,3.73
2018-03-04T16:51:16.442Z,3.67
2018-03-04T16:53:43.970Z,3.56
2018-03-04T16:56:12.173Z,3.54
2018-03-04T16:58:39.714Z,3.48
2018-03-04T17:01:07.837Z,3.51
2018-03-04T17:03:35.375Z,3.42
2018-03-04T17:06:02.972Z,3.38
2018-03-04T17:08:30.485Z,3.30
2018-03-04T17:10:58.009Z,3.26
2018-03-04T17:13:26.392Z,3.29
2018-03-04T17:15:53.931Z,3.18
2018-03-04T17:18:22.316Z,3.15
2018-03-04T17:20:49.829Z,3.11
2018-03-04T17:23:17.360Z,3.11
2018-03-04T17:25:44.926Z,3.07
2018-03-04T17:28:12.462Z,2.96
2018-03-04T17:30:39.997Z,2.93
2018-03-04T17:33:07.512Z,2.87
2018-03-04T17:35:35.051Z,2.81
2018-03-04T17:38:02.576Z,2.78
2018-03-04T17:40:30.148Z,2.69
2018-03-04T17:42:57.663Z,2.69
2018-03-04T17:45:25.191Z,2.60
2018-03-04T17:47:52.704Z,2.57
2018-03-04T17:50:20.266Z,2.59
2018-03-04T17:52:47.794Z,2.56
2018-03-04T17:55:16.249Z,2.50
2018-03-04T17:57:43.810Z,2.51
2018-03-04T18:00:11.328Z,2.41
2018-03-04T18:02:39.678Z,2.37
2018-03-04T18:05:07.185Z,2.32
2018-03-04T18:07:34.697Z,2.29
2018-03-04T18:10:02.372Z,2.25
2018-03-04T18:12:29.889Z,2.19
2018-03-04T18:14:57.417Z,2.13
2018-03-04T18:17:24.930Z,2.13
2018-03-04T18:19:52.467Z,2.10
2018-03-04T18:22:20.005Z,2.04
2018-03-04T18:24:47.513Z,1.96
2018-03-04T18:27:15.041Z,1.97
2018-03-04T18:29:42.563Z,1.92
2018-03-04T18:32:10.097Z,1.88
2018-03-04T18:34:37.645Z,1.84
2018-03-04T18:37:05.162Z,1.85
2018-03-04T18:39:32.695Z,1.78
2018-03-04T18:42:00.214Z,1.72
2018-03-04T18:44:27.755Z,1.69
2018-03-04T18:46:55.286Z,1.64
2018-03-04T18:49:22.835Z,1.67
2018-03-04T18:51:50.365Z,1.62
2018-03-04T18:54:17.882Z,1.54
2018-03-04T18:56:45.403Z,1.54
2018-03-04T18:59:12.930Z,1.55
2018-03-04T19:01:40.485Z,1.48
2018-03-04T19:04:08.012Z,1.40
2018-03-04T19:06:36.270Z,1.37
2018-03-04T19:09:04.507Z,1.37
2018-03-04T19:11:32.244Z,1.38
2018-03-04T19:14:00.313Z,1.24
2018-03-04T19:16:27.824Z,1.28
2018-03-04T19:18:55.343Z,1.28
2018-03-04T19:21:22.874Z,1.20
2018-03-04T19:23:51.684Z,1.09
2018-03-04T19:26:19.201Z,1.05
2018-03-04T19:28:46.727Z,1.09
2018-03-04T19:31:14.260Z,0.99
2018-03-04T19:33:41.783Z,0.99
2018-03-04T19:36:09.306Z,0.94
2018-03-04T19:38:36.849Z,0.94
2018-03-04T19:41:04.378Z,0.89
2018-03-04T19:43:33.481Z,0.87
2018-03-04T19:46:00.982Z,0.88
2018-03-04T19:48:29.231Z,0.81
2018-03-04T19:50:57.147Z,0.80
2018-03-04T19:53:24.675Z,0.77
2018-03-04T19:55:52.234Z,0.75
2018-03-04T19:58:19.773Z,0.76
2018-03-04T20:00:47.299Z,0.73
2018-03-04T20:03:14.820Z,0.71
2018-03-04T20:05:42.354Z,0.74
2018-03-04T20:08:09.879Z,0.72
2018-03-04T20:10:37.408Z,0.68
2018-03-04T20:13:04.925Z,0.65
2018-03-04T20:15:32.460Z,0.69
2018-03-04T20:18:01.206Z,0.62
2018-03-04T20:20:28.732Z,0.58
2018-03-04T20:22:56.247Z,0.58
2018-03-04T20:25:23.762Z,0.54
2018-03-04T20:27:51.282Z,0.53
2018-03-04T20:30:19.032Z,0.51
2018-03-04T20:32:46.553Z,0.48
2018-03-04T20:35:14.080Z,0.50
2018-03-04T20:37:41.594Z,0.50
2018-03-04T20:40:09.390Z,0.41
2018-03-04T20:42:36.926Z,0.43
2018-03-04T20:45:04.467Z,0.39
2018-03-04T20:47:31.988Z,0.38
2018-03-04T20:49:59.521Z,0.36
2018-03-04T20:52:28.457Z,0.39
2018-03-04T20:54:56.309Z,0.38
2018-03-04T20:57:23.826Z,0.34
2018-03-04T20:59:51.347Z,0.28
2018-03-04T21:02:18.867Z,0.31
2018-03-04T21:04:46.374Z,0.27
2018-03-04T21:07:13.900Z,0.25
2018-03-04T21:09:41.409Z,0.24
2018-03-04T21:12:08.935Z,0.21
2018-03-04T21:14:36.450Z,0.26
2018-03-04T21:17:03.974Z,0.22
2018-03-04T21:19:31.497Z,0.18
2018-03-04T21:21:59.016Z,0.13
2018-03-04T21:24:26.538Z,0.17
2018-03-04T21:26:54.054Z,0.15
2018-03-04T21:29:22.299Z,0.16
2018-03-04T21:31:49.818Z,0.22
2018-03-04T21:34:17.334Z,0.15
2018-03-04T21:36:45.194Z,0.07
2018-03-04T21:39:13.075Z,0.09
2018-03-04T21:41:40.600Z,0.01
2018-03-04T21:44:08.126Z,0.03
2018-03-04T21:46:35.671Z,-0.05
2018-03-04T21:49:03.183Z,0.01
2018-03-04T21:51:30.706Z,-0.02
2018-03-04T21:53:58.217Z,0.07
2018-03-04T21:56:25.752Z,-0.01
2018-03-04T21:58:53.294Z,-0.02
2018-03-04T22:01:21.628Z,-0.04
2018-03-04T22:03:49.158Z,-0.07
2018-03-04T22:06:16.686Z,-0.05
2018-03-04T22:08:44.211Z,-0.10
2018-03-04T22:11:11.738Z,-0.06
2018-03-04T22:13:39.254Z,-0.13
2018-03-04T22:16:06.769Z,-0.07
2018-03-04T22:18:34.285Z,-0.13
2018-03-04T22:21:01.810Z,-0.16
2018-03-04T22:23:29.674Z,-0.14
2018-03-04T22:25:57.198Z,-0.10
2018-03-04T22:28:24.718Z,-0.17
2018-03-04T22:30:52.249Z,-0.14
2018-03-04T22:33:20.355Z,-0.18
2018-03-04T22:35:47.882Z,-0.11
2018-03-04T22:38:15.411Z,-0.06
2018-03-04T22:40:42.942Z,-0.17
2018-03-04T22:43:10.464Z,-0.12
2018-03-04T22:45:37.992Z,-0.10
2018-03-04T22:48:05.505Z,-0.10
2018-03-04T22:50:33.036Z,0.09
2018-03-04T22:53:00.565Z,-0.17
2018-03-04T22:55:28.091Z,-0.16
2018-03-04T22:57:55.631Z,-0.15
2018-03-04T23:00:23.161Z,-0.11
2018-03-04T23:02:51.018Z,-0.17
2018-03-04T23:05:19.158Z,-0.21
2018-03-04T23:07:46.682Z,-0.15
2018-03-04T23:10:15.237Z,-0.20
2018-03-04T23:12:42.737Z,-0.23
2018-03-04T23:15:10.257Z,-0.18
2018-03-04T23:17:38.087Z,-0.28
2018-03-04T23:20:05.602Z,-0.23
2018-03-04T23:22:33.128Z,-0.26
2018-03-04T23:25:00.728Z,-0.20
2018-03-04T23:27:28.256Z,-0.31
2018-03-04T23:29:55.790Z,-0.25
2018-03-04T23:32:23.709Z,-0.26
2018-03-04T23:34:51.237Z,-0.38
2018-03-04T23:37:19.482Z,-0.37
2018-03-04T23:39:47.167Z,-0.42
2018-03-04T23:42:15.265Z,-0.33
2018-03-04T23:44:42.784Z,-0.47
2018-03-04T23:47:10.309Z,-0.42
2018-03-04T23:49:37.856Z,-0.45
2018-03-04T23:52:05.381Z,-0.35
2018-03-04T23:54:32.908Z,-0.44
2018-03-04T23:57:00.428Z,-0.44
2018-03-04T23:59:27.964Z,-0.43
